Página principal
METAR-TAF:

METAR-TAF

Aeroportos :

Salamanca, Espanha

latitude: 40-57N, longitude: 005-30W, altura: 793 m

Observação actual do tempo

O boletim foi feito há 10 horas e 53 minutos, às 18:00 UTC
Vento 13 kt de este, variando entre nordeste e este
Temperatura 6°C
Humidade 49%
Pressão 1012 hPa
Visibilidade 10 km ou mais
Nuvens dispersasa uma altura de 4500 ft

METAR: LESA 211800Z 08013KT 040V100 9999 SCT045 06/M04 Q1012

Hora: 05:53 (04:53 UTC)

Previsão

O boletim foi feito há 5 horas e 53 minutos, às 23:00 UTC
Previsão válida de 22 às 00 UTC a 22 às 24 UTC
Vento 10 kt de es-nordeste
Visibilidade 10 km ou mais
sem nuvens abaixo de 1500 metros e sem cumulonimbus

TAF: LESA 212300Z 2200/2224 07010KT CAVOK TX08/2215Z TNM03/2206Z

Observações e previsões do tempo de mais de 4000 aeroportos (mensagens METAR e TAF).

As estações disponíveis são os pontos amarelos e vermelhos sobre o mapa.

Mova o rato sobre o mapa para ver o nome da estação.

Depois clique no ponto para visualizar as observações e previsões meteorológicas.

Para alterar o mapa : clique nos botões verdes com uma cruz preta para aumentar o zoom; no botão verde com uma pitada de zoom; ou nas setas verdes para mapas adjacentes.


METAR-TAF: